sensor_id;sensor_type;location;lat;lon;timestamp;P1;durP1;ratioP1;P2;durP2;ratioP2
53549;SDS011;67273;52.914;-0.982;2023-09-19T00:01:05;4.80;;;1.98;;
53549;SDS011;67273;52.914;-0.982;2023-09-19T00:03:35;5.15;;;1.75;;
53549;SDS011;67273;52.914;-0.982;2023-09-19T00:06:04;5.82;;;2.20;;
53549;SDS011;67273;52.914;-0.982;2023-09-19T00:08:32;5.10;;;1.88;;
53549;SDS011;67273;52.914;-0.982;2023-09-19T00:10:58;6.05;;;2.20;;
53549;SDS011;67273;52.914;-0.982;2023-09-19T00:13:29;6.10;;;2.08;;
53549;SDS011;67273;52.914;-0.982;2023-09-19T00:15:56;4.80;;;1.90;;
53549;SDS011;67273;52.914;-0.982;2023-09-19T00:18:24;4.53;;;1.70;;
53549;SDS011;67273;52.914;-0.982;2023-09-19T00:23:24;6.10;;;1.80;;
53549;SDS011;67273;52.914;-0.982;2023-09-19T00:25:50;7.47;;;2.10;;
53549;SDS011;67273;52.914;-0.982;2023-09-19T00:28:16;5.25;;;1.88;;
53549;SDS011;67273;52.914;-0.982;2023-09-19T00:30:43;4.07;;;1.80;;
53549;SDS011;67273;52.914;-0.982;2023-09-19T00:33:09;6.63;;;2.08;;
53549;SDS011;67273;52.914;-0.982;2023-09-19T00:35:36;6.40;;;2.17;;
53549;SDS011;67273;52.914;-0.982;2023-09-19T00:38:04;5.88;;;2.17;;
53549;SDS011;67273;52.914;-0.982;2023-09-19T00:40:31;4.55;;;1.60;;
53549;SDS011;67273;52.914;-0.982;2023-09-19T00:42:58;3.92;;;1.80;;
53549;SDS011;67273;52.914;-0.982;2023-09-19T00:45:25;5.05;;;2.00;;
53549;SDS011;67273;52.914;-0.982;2023-09-19T00:47:51;5.38;;;2.00;;
53549;SDS011;67273;52.914;-0.982;2023-09-19T00:50:17;5.00;;;1.80;;
53549;SDS011;67273;52.914;-0.982;2023-09-19T00:52:44;5.00;;;1.83;;
53549;SDS011;67273;52.914;-0.982;2023-09-19T00:55:13;4.22;;;1.80;;
53549;SDS011;67273;52.914;-0.982;2023-09-19T00:57:41;6.50;;;2.08;;
53549;SDS011;67273;52.914;-0.982;2023-09-19T01:00:09;5.15;;;2.20;;
53549;SDS011;67273;52.914;-0.982;2023-09-19T01:02:41;5.38;;;2.00;;
53549;SDS011;67273;52.914;-0.982;2023-09-19T01:05:12;5.53;;;2.22;;
53549;SDS011;67273;52.914;-0.982;2023-09-19T01:07:39;5.30;;;2.20;;
53549;SDS011;67273;52.914;-0.982;2023-09-19T01:10:10;6.15;;;1.98;;
53549;SDS011;67273;52.914;-0.982;2023-09-19T01:12:43;6.05;;;2.15;;
53549;SDS011;67273;52.914;-0.982;2023-09-19T01:15:15;6.65;;;2.00;;
53549;SDS011;67273;52.914;-0.982;2023-09-19T01:17:51;5.22;;;2.10;;
53549;SDS011;67273;52.914;-0.982;2023-09-19T01:20:25;4.93;;;1.95;;
53549;SDS011;67273;52.914;-0.982;2023-09-19T01:23:04;4.30;;;1.90;;
53549;SDS011;67273;52.914;-0.982;2023-09-19T01:26:03;4.80;;;1.90;;
53549;SDS011;67273;52.914;-0.982;2023-09-19T01:28:52;4.72;;;2.00;;
53549;SDS011;67273;52.914;-0.982;2023-09-19T01:31:21;7.32;;;2.35;;
53549;SDS011;67273;52.914;-0.982;2023-09-19T01:33:56;5.43;;;2.13;;
53549;SDS011;67273;52.914;-0.982;2023-09-19T01:36:26;6.22;;;2.10;;
53549;SDS011;67273;52.914;-0.982;2023-09-19T01:38:54;5.63;;;1.98;;
53549;SDS011;67273;52.914;-0.982;2023-09-19T01:41:24;6.55;;;2.42;;
53549;SDS011;67273;52.914;-0.982;2023-09-19T01:43:54;5.03;;;2.13;;
53549;SDS011;67273;52.914;-0.982;2023-09-19T01:46:24;6.78;;;1.90;;
53549;SDS011;67273;52.914;-0.982;2023-09-19T01:48:54;7.38;;;2.05;;
53549;SDS011;67273;52.914;-0.982;2023-09-19T01:51:32;6.40;;;2.10;;
53549;SDS011;67273;52.914;-0.982;2023-09-19T01:54:03;6.63;;;2.50;;
53549;SDS011;67273;52.914;-0.982;2023-09-19T01:56:34;4.03;;;1.80;;
53549;SDS011;67273;52.914;-0.982;2023-09-19T01:59:06;4.15;;;2.00;;
53549;SDS011;67273;52.914;-0.982;2023-09-19T02:01:39;5.68;;;2.45;;
53549;SDS011;67273;52.914;-0.982;2023-09-19T02:04:12;5.25;;;2.35;;
53549;SDS011;67273;52.914;-0.982;2023-09-19T02:06:40;5.30;;;2.00;;
53549;SDS011;67273;52.914;-0.982;2023-09-19T02:09:07;6.63;;;2.60;;
53549;SDS011;67273;52.914;-0.982;2023-09-19T02:11:36;5.13;;;2.25;;
53549;SDS011;67273;52.914;-0.982;2023-09-19T02:14:05;7.57;;;2.80;;
53549;SDS011;67273;52.914;-0.982;2023-09-19T02:16:34;6.72;;;2.20;;
53549;SDS011;67273;52.914;-0.982;2023-09-19T02:19:04;4.72;;;2.30;;
53549;SDS011;67273;52.914;-0.982;2023-09-19T02:21:32;6.38;;;2.20;;
53549;SDS011;67273;52.914;-0.982;2023-09-19T02:23:59;5.38;;;2.30;;
53549;SDS011;67273;52.914;-0.982;2023-09-19T02:26:26;4.80;;;1.98;;
53549;SDS011;67273;52.914;-0.982;2023-09-19T02:28:52;5.95;;;2.30;;
53549;SDS011;67273;52.914;-0.982;2023-09-19T02:31:18;6.85;;;2.45;;
53549;SDS011;67273;52.914;-0.982;2023-09-19T02:33:44;6.15;;;2.50;;
53549;SDS011;67273;52.914;-0.982;2023-09-19T02:36:11;6.43;;;2.17;;
53549;SDS011;67273;52.914;-0.982;2023-09-19T02:38:42;5.78;;;2.10;;
53549;SDS011;67273;52.914;-0.982;2023-09-19T02:41:08;7.18;;;2.60;;
53549;SDS011;67273;52.914;-0.982;2023-09-19T02:43:34;5.35;;;2.20;;
53549;SDS011;67273;52.914;-0.982;2023-09-19T02:46:01;7.00;;;2.38;;
53549;SDS011;67273;52.914;-0.982;2023-09-19T02:48:28;5.68;;;2.08;;
53549;SDS011;67273;52.914;-0.982;2023-09-19T02:50:55;5.50;;;2.33;;
53549;SDS011;67273;52.914;-0.982;2023-09-19T02:53:22;8.40;;;2.90;;
53549;SDS011;67273;52.914;-0.982;2023-09-19T02:55:49;6.90;;;2.45;;
53549;SDS011;67273;52.914;-0.982;2023-09-19T02:58:18;6.15;;;2.13;;
53549;SDS011;67273;52.914;-0.982;2023-09-19T03:00:44;8.40;;;2.88;;
53549;SDS011;67273;52.914;-0.982;2023-09-19T03:03:16;6.22;;;2.55;;
53549;SDS011;67273;52.914;-0.982;2023-09-19T03:05:43;6.32;;;2.35;;
53549;SDS011;67273;52.914;-0.982;2023-09-19T03:08:13;6.85;;;2.30;;
53549;SDS011;67273;52.914;-0.982;2023-09-19T03:10:45;6.78;;;2.53;;
53549;SDS011;67273;52.914;-0.982;2023-09-19T03:13:11;5.93;;;2.40;;
53549;SDS011;67273;52.914;-0.982;2023-09-19T03:15:40;8.10;;;2.80;;
53549;SDS011;67273;52.914;-0.982;2023-09-19T03:18:09;7.38;;;2.33;;
53549;SDS011;67273;52.914;-0.982;2023-09-19T03:20:34;6.93;;;2.58;;
53549;SDS011;67273;52.914;-0.982;2023-09-19T03:23:01;5.07;;;2.03;;
53549;SDS011;67273;52.914;-0.982;2023-09-19T03:25:28;5.22;;;2.33;;
53549;SDS011;67273;52.914;-0.982;2023-09-19T03:27:57;7.88;;;2.78;;
53549;SDS011;67273;52.914;-0.982;2023-09-19T03:30:24;6.57;;;2.58;;
53549;SDS011;67273;52.914;-0.982;2023-09-19T03:32:50;6.32;;;2.50;;
53549;SDS011;67273;52.914;-0.982;2023-09-19T03:35:16;6.15;;;2.63;;
53549;SDS011;67273;52.914;-0.982;2023-09-19T03:37:43;5.78;;;2.55;;
53549;SDS011;67273;52.914;-0.982;2023-09-19T03:40:10;8.57;;;3.17;;
53549;SDS011;67273;52.914;-0.982;2023-09-19T03:42:37;7.07;;;2.65;;
53549;SDS011;67273;52.914;-0.982;2023-09-19T03:45:06;7.45;;;2.25;;
53549;SDS011;67273;52.914;-0.982;2023-09-19T03:47:33;7.63;;;2.70;;
53549;SDS011;67273;52.914;-0.982;2023-09-19T03:50:01;5.95;;;2.40;;
53549;SDS011;67273;52.914;-0.982;2023-09-19T03:52:27;6.38;;;2.30;;
53549;SDS011;67273;52.914;-0.982;2023-09-19T03:54:52;5.72;;;2.40;;
53549;SDS011;67273;52.914;-0.982;2023-09-19T03:57:18;5.97;;;2.60;;
53549;SDS011;67273;52.914;-0.982;2023-09-19T03:59:45;5.95;;;2.50;;
53549;SDS011;67273;52.914;-0.982;2023-09-19T04:02:13;7.15;;;2.60;;
53549;SDS011;67273;52.914;-0.982;2023-09-19T04:04:48;6.18;;;2.60;;
53549;SDS011;67273;52.914;-0.982;2023-09-19T04:07:14;8.15;;;2.50;;
53549;SDS011;67273;52.914;-0.982;2023-09-19T04:09:40;6.78;;;2.50;;
53549;SDS011;67273;52.914;-0.982;2023-09-19T04:12:07;5.10;;;2.33;;
53549;SDS011;67273;52.914;-0.982;2023-09-19T04:14:36;5.22;;;2.15;;
53549;SDS011;67273;52.914;-0.982;2023-09-19T04:17:02;5.75;;;2.42;;
53549;SDS011;67273;52.914;-0.982;2023-09-19T04:19:30;7.75;;;2.67;;
53549;SDS011;67273;52.914;-0.982;2023-09-19T04:21:56;6.80;;;2.42;;
53549;SDS011;67273;52.914;-0.982;2023-09-19T04:24:22;5.50;;;2.30;;
53549;SDS011;67273;52.914;-0.982;2023-09-19T04:26:48;7.35;;;2.70;;
53549;SDS011;67273;52.914;-0.982;2023-09-19T04:29:13;5.90;;;2.33;;
53549;SDS011;67273;52.914;-0.982;2023-09-19T04:31:39;7.95;;;2.92;;
53549;SDS011;67273;52.914;-0.982;2023-09-19T04:34:05;4.95;;;2.10;;
53549;SDS011;67273;52.914;-0.982;2023-09-19T04:36:32;5.65;;;2.30;;
53549;SDS011;67273;52.914;-0.982;2023-09-19T04:38:58;7.45;;;2.63;;
53549;SDS011;67273;52.914;-0.982;2023-09-19T04:41:24;6.97;;;2.53;;
53549;SDS011;67273;52.914;-0.982;2023-09-19T04:43:50;5.30;;;2.00;;
53549;SDS011;67273;52.914;-0.982;2023-09-19T04:46:16;5.57;;;2.08;;
53549;SDS011;67273;52.914;-0.982;2023-09-19T04:48:43;4.97;;;2.17;;
53549;SDS011;67273;52.914;-0.982;2023-09-19T04:51:08;8.15;;;2.80;;
53549;SDS011;67273;52.914;-0.982;2023-09-19T04:53:37;5.90;;;2.20;;
53549;SDS011;67273;52.914;-0.982;2023-09-19T04:56:02;7.18;;;2.50;;
53549;SDS011;67273;52.914;-0.982;2023-09-19T04:58:29;6.22;;;2.60;;
53549;SDS011;67273;52.914;-0.982;2023-09-19T05:00:55;5.95;;;2.17;;
53549;SDS011;67273;52.914;-0.982;2023-09-19T05:03:21;7.65;;;2.90;;
53549;SDS011;67273;52.914;-0.982;2023-09-19T05:05:47;6.15;;;2.67;;
53549;SDS011;67273;52.914;-0.982;2023-09-19T05:08:13;6.25;;;2.30;;
53549;SDS011;67273;52.914;-0.982;2023-09-19T05:10:41;5.68;;;2.35;;
53549;SDS011;67273;52.914;-0.982;2023-09-19T05:13:07;6.18;;;2.25;;
53549;SDS011;67273;52.914;-0.982;2023-09-19T05:15:33;7.25;;;2.55;;
53549;SDS011;67273;52.914;-0.982;2023-09-19T05:17:58;5.32;;;2.60;;
53549;SDS011;67273;52.914;-0.982;2023-09-19T05:20:24;5.43;;;2.22;;
53549;SDS011;67273;52.914;-0.982;2023-09-19T05:22:58;5.30;;;2.30;;
53549;SDS011;67273;52.914;-0.982;2023-09-19T05:25:27;5.03;;;2.20;;
53549;SDS011;67273;52.914;-0.982;2023-09-19T05:27:56;5.53;;;2.38;;
53549;SDS011;67273;52.914;-0.982;2023-09-19T05:30:22;6.55;;;2.28;;
53549;SDS011;67273;52.914;-0.982;2023-09-19T05:32:49;6.95;;;2.50;;
53549;SDS011;67273;52.914;-0.982;2023-09-19T05:35:16;6.53;;;2.30;;
53549;SDS011;67273;52.914;-0.982;2023-09-19T05:37:42;5.80;;;2.20;;
53549;SDS011;67273;52.914;-0.982;2023-09-19T05:40:08;8.45;;;2.60;;
53549;SDS011;67273;52.914;-0.982;2023-09-19T05:42:34;7.47;;;2.55;;
53549;SDS011;67273;52.914;-0.982;2023-09-19T05:45:01;5.45;;;2.13;;
53549;SDS011;67273;52.914;-0.982;2023-09-19T05:47:27;6.13;;;2.25;;
53549;SDS011;67273;52.914;-0.982;2023-09-19T05:49:54;6.93;;;2.90;;
53549;SDS011;67273;52.914;-0.982;2023-09-19T05:52:19;7.93;;;2.50;;
53549;SDS011;67273;52.914;-0.982;2023-09-19T05:54:47;8.35;;;2.63;;
53549;SDS011;67273;52.914;-0.982;2023-09-19T05:57:14;6.55;;;2.55;;
53549;SDS011;67273;52.914;-0.982;2023-09-19T05:59:40;9.23;;;2.55;;
53549;SDS011;67273;52.914;-0.982;2023-09-19T06:02:09;9.05;;;3.05;;
53549;SDS011;67273;52.914;-0.982;2023-09-19T06:04:36;7.47;;;2.47;;
53549;SDS011;67273;52.914;-0.982;2023-09-19T06:07:05;6.80;;;2.72;;
53549;SDS011;67273;52.914;-0.982;2023-09-19T06:09:31;9.68;;;2.67;;
53549;SDS011;67273;52.914;-0.982;2023-09-19T06:11:57;8.73;;;2.80;;
53549;SDS011;67273;52.914;-0.982;2023-09-19T06:14:23;8.18;;;2.92;;
53549;SDS011;67273;52.914;-0.982;2023-09-19T06:16:50;9.15;;;2.83;;
53549;SDS011;67273;52.914;-0.982;2023-09-19T06:19:17;6.80;;;2.60;;
53549;SDS011;67273;52.914;-0.982;2023-09-19T06:21:42;7.18;;;2.75;;
53549;SDS011;67273;52.914;-0.982;2023-09-19T06:24:10;5.78;;;2.50;;
53549;SDS011;67273;52.914;-0.982;2023-09-19T06:26:36;7.15;;;2.63;;
53549;SDS011;67273;52.914;-0.982;2023-09-19T06:29:02;7.85;;;2.80;;
53549;SDS011;67273;52.914;-0.982;2023-09-19T06:31:29;7.15;;;2.70;;
53549;SDS011;67273;52.914;-0.982;2023-09-19T06:33:56;5.45;;;2.13;;
53549;SDS011;67273;52.914;-0.982;2023-09-19T06:36:23;7.10;;;2.70;;
53549;SDS011;67273;52.914;-0.982;2023-09-19T06:38:49;9.20;;;2.70;;
53549;SDS011;67273;52.914;-0.982;2023-09-19T06:41:16;5.68;;;2.35;;
53549;SDS011;67273;52.914;-0.982;2023-09-19T06:43:42;7.22;;;2.38;;
53549;SDS011;67273;52.914;-0.982;2023-09-19T06:46:09;6.65;;;2.50;;
53549;SDS011;67273;52.914;-0.982;2023-09-19T06:48:34;6.18;;;2.38;;
53549;SDS011;67273;52.914;-0.982;2023-09-19T06:51:00;5.70;;;2.30;;
53549;SDS011;67273;52.914;-0.982;2023-09-19T06:53:31;7.03;;;2.53;;
53549;SDS011;67273;52.914;-0.982;2023-09-19T06:55:57;7.03;;;2.40;;
53549;SDS011;67273;52.914;-0.982;2023-09-19T06:58:23;5.78;;;2.55;;
53549;SDS011;67273;52.914;-0.982;2023-09-19T07:00:49;6.97;;;2.55;;
53549;SDS011;67273;52.914;-0.982;2023-09-19T07:03:15;7.78;;;2.88;;
53549;SDS011;67273;52.914;-0.982;2023-09-19T07:05:46;7.53;;;2.50;;
53549;SDS011;67273;52.914;-0.982;2023-09-19T07:08:13;6.80;;;2.58;;
53549;SDS011;67273;52.914;-0.982;2023-09-19T07:10:42;6.32;;;2.40;;
53549;SDS011;67273;52.914;-0.982;2023-09-19T07:13:17;7.13;;;2.40;;
53549;SDS011;67273;52.914;-0.982;2023-09-19T07:15:45;5.57;;;2.42;;
53549;SDS011;67273;52.914;-0.982;2023-09-19T07:18:13;10.35;;;2.88;;
53549;SDS011;67273;52.914;-0.982;2023-09-19T07:20:42;6.53;;;2.60;;
53549;SDS011;67273;52.914;-0.982;2023-09-19T07:23:14;6.60;;;2.55;;
53549;SDS011;67273;52.914;-0.982;2023-09-19T07:25:42;7.80;;;2.88;;
53549;SDS011;67273;52.914;-0.982;2023-09-19T07:28:08;9.15;;;2.70;;
53549;SDS011;67273;52.914;-0.982;2023-09-19T07:30:36;7.43;;;2.33;;
53549;SDS011;67273;52.914;-0.982;2023-09-19T07:33:02;7.03;;;3.00;;
53549;SDS011;67273;52.914;-0.982;2023-09-19T07:35:30;6.32;;;2.40;;
53549;SDS011;67273;52.914;-0.982;2023-09-19T07:37:56;6.85;;;2.45;;
53549;SDS011;67273;52.914;-0.982;2023-09-19T07:40:23;10.88;;;2.90;;
53549;SDS011;67273;52.914;-0.982;2023-09-19T07:42:55;6.05;;;2.47;;
53549;SDS011;67273;52.914;-0.982;2023-09-19T07:45:21;6.95;;;2.40;;
53549;SDS011;67273;52.914;-0.982;2023-09-19T07:47:48;5.15;;;2.13;;
53549;SDS011;67273;52.914;-0.982;2023-09-19T07:50:15;7.22;;;2.78;;
53549;SDS011;67273;52.914;-0.982;2023-09-19T07:52:41;7.35;;;2.95;;
53549;SDS011;67273;52.914;-0.982;2023-09-19T07:55:08;6.30;;;2.72;;
53549;SDS011;67273;52.914;-0.982;2023-09-19T07:57:36;5.28;;;2.20;;
53549;SDS011;67273;52.914;-0.982;2023-09-19T08:00:04;7.25;;;2.72;;
53549;SDS011;67273;52.914;-0.982;2023-09-19T08:02:36;6.85;;;2.42;;
53549;SDS011;67273;52.914;-0.982;2023-09-19T08:05:03;5.07;;;2.53;;
53549;SDS011;67273;52.914;-0.982;2023-09-19T08:07:36;6.82;;;2.67;;
53549;SDS011;67273;52.914;-0.982;2023-09-19T08:10:01;6.47;;;2.50;;
53549;SDS011;67273;52.914;-0.982;2023-09-19T08:12:27;6.45;;;2.47;;
53549;SDS011;67273;52.914;-0.982;2023-09-19T08:14:55;5.30;;;2.00;;
53549;SDS011;67273;52.914;-0.982;2023-09-19T08:17:22;6.28;;;2.53;;
53549;SDS011;67273;52.914;-0.982;2023-09-19T08:19:50;5.72;;;2.25;;
53549;SDS011;67273;52.914;-0.982;2023-09-19T08:22:18;5.00;;;2.30;;
53549;SDS011;67273;52.914;-0.982;2023-09-19T08:24:44;4.65;;;2.30;;
53549;SDS011;67273;52.914;-0.982;2023-09-19T08:27:10;5.65;;;2.65;;
53549;SDS011;67273;52.914;-0.982;2023-09-19T08:29:37;5.10;;;2.15;;
53549;SDS011;67273;52.914;-0.982;2023-09-19T08:32:04;5.13;;;2.30;;
53549;SDS011;67273;52.914;-0.982;2023-09-19T08:34:31;4.97;;;2.05;;
53549;SDS011;67273;52.914;-0.982;2023-09-19T08:36:59;5.65;;;2.33;;
53549;SDS011;67273;52.914;-0.982;2023-09-19T08:39:25;4.88;;;2.28;;
53549;SDS011;67273;52.914;-0.982;2023-09-19T08:41:56;5.78;;;2.17;;
53549;SDS011;67273;52.914;-0.982;2023-09-19T08:44:22;5.07;;;2.30;;
53549;SDS011;67273;52.914;-0.982;2023-09-19T08:46:49;5.30;;;2.30;;
53549;SDS011;67273;52.914;-0.982;2023-09-19T08:49:21;6.10;;;2.42;;
53549;SDS011;67273;52.914;-0.982;2023-09-19T08:51:59;6.07;;;2.70;;
53549;SDS011;67273;52.914;-0.982;2023-09-19T08:54:32;5.05;;;2.00;;
53549;SDS011;67273;52.914;-0.982;2023-09-19T08:59:33;5.22;;;2.33;;
53549;SDS011;67273;52.914;-0.982;2023-09-19T09:02:00;4.15;;;2.10;;
53549;SDS011;67273;52.914;-0.982;2023-09-19T09:04:29;6.65;;;2.42;;
53549;SDS011;67273;52.914;-0.982;2023-09-19T09:06:56;4.72;;;2.20;;
53549;SDS011;67273;52.914;-0.982;2023-09-19T09:09:23;5.00;;;2.45;;
53549;SDS011;67273;52.914;-0.982;2023-09-19T09:11:49;5.97;;;2.30;;
53549;SDS011;67273;52.914;-0.982;2023-09-19T09:14:18;4.65;;;2.03;;
53549;SDS011;67273;52.914;-0.982;2023-09-19T09:16:44;5.22;;;2.10;;
53549;SDS011;67273;52.914;-0.982;2023-09-19T09:19:11;4.22;;;2.10;;
53549;SDS011;67273;52.914;-0.982;2023-09-19T09:21:38;6.72;;;2.30;;
53549;SDS011;67273;52.914;-0.982;2023-09-19T09:26:55;4.57;;;1.90;;
53549;SDS011;67273;52.914;-0.982;2023-09-19T09:29:35;4.10;;;2.13;;
53549;SDS011;67273;52.914;-0.982;2023-09-19T09:32:16;5.60;;;2.00;;
53549;SDS011;67273;52.914;-0.982;2023-09-19T09:34:43;5.68;;;2.20;;
53549;SDS011;67273;52.914;-0.982;2023-09-19T09:37:12;5.40;;;2.30;;
53549;SDS011;67273;52.914;-0.982;2023-09-19T09:39:41;6.25;;;2.63;;
53549;SDS011;67273;52.914;-0.982;2023-09-19T09:42:23;3.38;;;1.90;;
53549;SDS011;67273;52.914;-0.982;2023-09-19T09:45:12;5.15;;;2.10;;
53549;SDS011;67273;52.914;-0.982;2023-09-19T09:47:43;4.20;;;1.92;;
53549;SDS011;67273;52.914;-0.982;2023-09-19T09:50:23;5.28;;;2.20;;
53549;SDS011;67273;52.914;-0.982;2023-09-19T09:52:54;4.40;;;2.17;;
53549;SDS011;67273;52.914;-0.982;2023-09-19T09:55:29;2.75;;;1.60;;
53549;SDS011;67273;52.914;-0.982;2023-09-19T10:00:52;4.57;;;2.30;;
53549;SDS011;67273;52.914;-0.982;2023-09-19T10:03:24;3.78;;;1.60;;
53549;SDS011;67273;52.914;-0.982;2023-09-19T10:05:57;4.78;;;1.90;;
53549;SDS011;67273;52.914;-0.982;2023-09-19T10:08:34;5.68;;;2.65;;
53549;SDS011;67273;52.914;-0.982;2023-09-19T10:11:10;4.68;;;2.47;;
53549;SDS011;67273;52.914;-0.982;2023-09-19T10:13:41;5.07;;;2.20;;
53549;SDS011;67273;52.914;-0.982;2023-09-19T10:16:11;3.85;;;1.98;;
53549;SDS011;67273;52.914;-0.982;2023-09-19T10:18:40;5.15;;;2.22;;
53549;SDS011;67273;52.914;-0.982;2023-09-19T10:21:08;5.47;;;2.20;;
53549;SDS011;67273;52.914;-0.982;2023-09-19T10:23:35;3.47;;;2.03;;
53549;SDS011;67273;52.914;-0.982;2023-09-19T10:26:03;4.07;;;1.90;;
53549;SDS011;67273;52.914;-0.982;2023-09-19T10:28:31;5.07;;;2.15;;
53549;SDS011;67273;52.914;-0.982;2023-09-19T10:30:59;6.13;;;2.22;;
53549;SDS011;67273;52.914;-0.982;2023-09-19T10:33:26;5.53;;;1.90;;
53549;SDS011;67273;52.914;-0.982;2023-09-19T10:36:03;4.07;;;1.85;;
53549;SDS011;67273;52.914;-0.982;2023-09-19T10:38:30;3.95;;;2.00;;
53549;SDS011;67273;52.914;-0.982;2023-09-19T10:40:58;5.18;;;2.10;;
53549;SDS011;67273;52.914;-0.982;2023-09-19T10:43:27;4.03;;;1.90;;
53549;SDS011;67273;52.914;-0.982;2023-09-19T10:45:58;4.60;;;2.10;;
53549;SDS011;67273;52.914;-0.982;2023-09-19T10:48:26;3.97;;;2.00;;
53549;SDS011;67273;52.914;-0.982;2023-09-19T10:50:55;4.30;;;1.80;;
53549;SDS011;67273;52.914;-0.982;2023-09-19T10:53:30;3.55;;;1.92;;
53549;SDS011;67273;52.914;-0.982;2023-09-19T10:58:43;3.97;;;2.08;;
53549;SDS011;67273;52.914;-0.982;2023-09-19T11:01:11;4.35;;;1.80;;
53549;SDS011;67273;52.914;-0.982;2023-09-19T11:03:37;4.95;;;1.90;;
53549;SDS011;67273;52.914;-0.982;2023-09-19T11:06:09;3.42;;;1.83;;
53549;SDS011;67273;52.914;-0.982;2023-09-19T11:08:51;4.10;;;1.70;;
53549;SDS011;67273;52.914;-0.982;2023-09-19T11:11:40;4.00;;;1.92;;
53549;SDS011;67273;52.914;-0.982;2023-09-19T11:25:48;2.80;;;1.77;;
53549;SDS011;67273;52.914;-0.982;2023-09-19T11:28:27;2.78;;;1.80;;
53549;SDS011;67273;52.914;-0.982;2023-09-19T11:30:57;3.35;;;1.52;;
53549;SDS011;67273;52.914;-0.982;2023-09-19T11:33:25;5.03;;;1.73;;
53549;SDS011;67273;52.914;-0.982;2023-09-19T11:35:58;4.80;;;2.00;;
53549;SDS011;67273;52.914;-0.982;2023-09-19T11:41:38;4.28;;;1.65;;
53549;SDS011;67273;52.914;-0.982;2023-09-19T11:47:00;3.80;;;1.77;;
53549;SDS011;67273;52.914;-0.982;2023-09-19T11:49:30;3.70;;;1.90;;
53549;SDS011;67273;52.914;-0.982;2023-09-19T11:52:02;3.28;;;1.70;;
53549;SDS011;67273;52.914;-0.982;2023-09-19T11:54:33;3.33;;;1.50;;
53549;SDS011;67273;52.914;-0.982;2023-09-19T11:57:02;2.78;;;1.52;;
53549;SDS011;67273;52.914;-0.982;2023-09-19T11:59:29;6.28;;;1.85;;
53549;SDS011;67273;52.914;-0.982;2023-09-19T12:01:56;3.22;;;1.73;;
53549;SDS011;67273;52.914;-0.982;2023-09-19T12:04:34;3.05;;;1.60;;
53549;SDS011;67273;52.914;-0.982;2023-09-19T12:07:04;3.65;;;1.40;;
53549;SDS011;67273;52.914;-0.982;2023-09-19T12:09:36;3.47;;;1.50;;
53549;SDS011;67273;52.914;-0.982;2023-09-19T12:12:04;3.45;;;1.52;;
53549;SDS011;67273;52.914;-0.982;2023-09-19T12:14:30;4.38;;;1.60;;
53549;SDS011;67273;52.914;-0.982;2023-09-19T12:16:57;3.50;;;1.67;;
53549;SDS011;67273;52.914;-0.982;2023-09-19T12:19:23;2.97;;;1.55;;
53549;SDS011;67273;52.914;-0.982;2023-09-19T12:21:58;4.38;;;1.50;;
53549;SDS011;67273;52.914;-0.982;2023-09-19T12:24:25;2.78;;;1.65;;
53549;SDS011;67273;52.914;-0.982;2023-09-19T12:26:51;3.75;;;1.42;;
53549;SDS011;67273;52.914;-0.982;2023-09-19T12:29:19;2.95;;;1.20;;
53549;SDS011;67273;52.914;-0.982;2023-09-19T12:31:52;2.78;;;1.48;;
53549;SDS011;67273;52.914;-0.982;2023-09-19T12:34:29;2.53;;;1.50;;
53549;SDS011;67273;52.914;-0.982;2023-09-19T12:37:12;4.28;;;1.30;;
53549;SDS011;67273;52.914;-0.982;2023-09-19T12:39:52;3.33;;;1.35;;
53549;SDS011;67273;52.914;-0.982;2023-09-19T12:42:21;2.35;;;1.20;;
53549;SDS011;67273;52.914;-0.982;2023-09-19T12:44:48;3.08;;;1.27;;
53549;SDS011;67273;52.914;-0.982;2023-09-19T12:47:20;3.75;;;1.30;;
53549;SDS011;67273;52.914;-0.982;2023-09-19T12:50:08;2.00;;;1.08;;
53549;SDS011;67273;52.914;-0.982;2023-09-19T12:52:52;3.17;;;1.30;;
53549;SDS011;67273;52.914;-0.982;2023-09-19T12:55:21;2.47;;;1.30;;
53549;SDS011;67273;52.914;-0.982;2023-09-19T12:57:58;1.55;;;1.05;;
53549;SDS011;67273;52.914;-0.982;2023-09-19T13:00:31;3.35;;;1.40;;
53549;SDS011;67273;52.914;-0.982;2023-09-19T13:03:09;2.75;;;1.23;;
53549;SDS011;67273;52.914;-0.982;2023-09-19T13:05:51;1.73;;;1.10;;
53549;SDS011;67273;52.914;-0.982;2023-09-19T13:08:21;4.50;;;1.33;;
53549;SDS011;67273;52.914;-0.982;2023-09-19T13:11:07;2.55;;;1.20;;
53549;SDS011;67273;52.914;-0.982;2023-09-19T13:16:02;2.20;;;1.15;;
53549;SDS011;67273;52.914;-0.982;2023-09-19T13:18:29;2.65;;;1.33;;
53549;SDS011;67273;52.914;-0.982;2023-09-19T13:21:07;2.20;;;1.15;;
53549;SDS011;67273;52.914;-0.982;2023-09-19T13:23:39;1.08;;;0.80;;
53549;SDS011;67273;52.914;-0.982;2023-09-19T13:26:05;1.60;;;0.90;;
53549;SDS011;67273;52.914;-0.982;2023-09-19T13:28:31;2.85;;;1.42;;
53549;SDS011;67273;52.914;-0.982;2023-09-19T13:30:58;1.83;;;1.10;;
53549;SDS011;67273;52.914;-0.982;2023-09-19T13:33:24;1.33;;;1.00;;
53549;SDS011;67273;52.914;-0.982;2023-09-19T13:35:51;2.47;;;1.30;;
53549;SDS011;67273;52.914;-0.982;2023-09-19T13:38:18;2.75;;;1.20;;
53549;SDS011;67273;52.914;-0.982;2023-09-19T13:40:48;3.40;;;1.10;;
53549;SDS011;67273;52.914;-0.982;2023-09-19T13:43:14;2.50;;;1.08;;
53549;SDS011;67273;52.914;-0.982;2023-09-19T13:45:41;1.10;;;0.80;;
53549;SDS011;67273;52.914;-0.982;2023-09-19T13:48:07;0.80;;;0.80;;
53549;SDS011;67273;52.914;-0.982;2023-09-19T13:50:34;1.27;;;0.80;;
53549;SDS011;67273;52.914;-0.982;2023-09-19T13:52:59;2.22;;;0.98;;
53549;SDS011;67273;52.914;-0.982;2023-09-19T13:55:25;1.23;;;0.80;;
53549;SDS011;67273;52.914;-0.982;2023-09-19T13:57:53;0.93;;;0.75;;
53549;SDS011;67273;52.914;-0.982;2023-09-19T14:00:21;2.95;;;1.00;;
53549;SDS011;67273;52.914;-0.982;2023-09-19T14:02:47;1.73;;;1.10;;
53549;SDS011;67273;52.914;-0.982;2023-09-19T14:05:14;1.80;;;1.13;;
53549;SDS011;67273;52.914;-0.982;2023-09-19T14:07:41;1.38;;;0.80;;
53549;SDS011;67273;52.914;-0.982;2023-09-19T14:10:07;2.42;;;1.00;;
53549;SDS011;67273;52.914;-0.982;2023-09-19T14:12:35;3.33;;;0.90;;
53549;SDS011;67273;52.914;-0.982;2023-09-19T14:15:03;1.15;;;0.80;;
53549;SDS011;67273;52.914;-0.982;2023-09-19T14:17:29;1.30;;;0.77;;
53549;SDS011;67273;52.914;-0.982;2023-09-19T14:19:54;1.17;;;0.90;;
53549;SDS011;67273;52.914;-0.982;2023-09-19T14:22:20;1.77;;;0.93;;
53549;SDS011;67273;52.914;-0.982;2023-09-19T14:24:46;2.00;;;0.57;;
53549;SDS011;67273;52.914;-0.982;2023-09-19T14:27:13;1.85;;;0.88;;
53549;SDS011;67273;52.914;-0.982;2023-09-19T14:29:39;0.57;;;0.52;;
53549;SDS011;67273;52.914;-0.982;2023-09-19T14:32:06;3.63;;;0.80;;
53549;SDS011;67273;52.914;-0.982;2023-09-19T14:34:32;1.02;;;0.75;;
53549;SDS011;67273;52.914;-0.982;2023-09-19T14:36:58;1.77;;;0.90;;
53549;SDS011;67273;52.914;-0.982;2023-09-19T14:39:24;0.52;;;0.50;;
53549;SDS011;67273;52.914;-0.982;2023-09-19T14:41:50;1.10;;;0.63;;
53549;SDS011;67273;52.914;-0.982;2023-09-19T14:44:16;1.50;;;0.90;;
53549;SDS011;67273;52.914;-0.982;2023-09-19T14:46:41;1.35;;;0.75;;
53549;SDS011;67273;52.914;-0.982;2023-09-19T14:49:11;1.13;;;0.80;;
53549;SDS011;67273;52.914;-0.982;2023-09-19T14:51:37;0.90;;;0.65;;
53549;SDS011;67273;52.914;-0.982;2023-09-19T14:54:04;1.15;;;0.70;;
53549;SDS011;67273;52.914;-0.982;2023-09-19T14:56:32;2.97;;;0.70;;
53549;SDS011;67273;52.914;-0.982;2023-09-19T14:58:58;1.58;;;0.70;;
53549;SDS011;67273;52.914;-0.982;2023-09-19T15:01:24;1.73;;;1.00;;
53549;SDS011;67273;52.914;-0.982;2023-09-19T15:03:49;1.80;;;0.98;;
53549;SDS011;67273;52.914;-0.982;2023-09-19T15:06:16;1.20;;;0.88;;
53549;SDS011;67273;52.914;-0.982;2023-09-19T15:08:45;1.25;;;0.80;;
53549;SDS011;67273;52.914;-0.982;2023-09-19T15:11:13;1.80;;;0.90;;
53549;SDS011;67273;52.914;-0.982;2023-09-19T15:13:40;2.13;;;0.90;;
53549;SDS011;67273;52.914;-0.982;2023-09-19T15:16:07;1.23;;;0.90;;